sensor_id;sensor_type;location;lat;lon;timestamp;temperature;humidity
46926;DHT22;32667;48.248;-1.700;2023-04-19T00:02:08;11.50;68.60
46926;DHT22;32667;48.248;-1.700;2023-04-19T00:04:34;11.50;68.60
46926;DHT22;32667;48.248;-1.700;2023-04-19T00:07:02;11.50;68.60
46926;DHT22;32667;48.248;-1.700;2023-04-19T00:09:28;11.50;68.60
46926;DHT22;32667;48.248;-1.700;2023-04-19T00:11:56;11.50;68.60
46926;DHT22;32667;48.248;-1.700;2023-04-19T00:14:22;11.50;68.60
46926;DHT22;32667;48.248;-1.700;2023-04-19T00:16:48;11.50;68.60
46926;DHT22;32667;48.248;-1.700;2023-04-19T00:19:16;11.50;68.60
46926;DHT22;32667;48.248;-1.700;2023-04-19T00:21:42;11.50;68.60
46926;DHT22;32667;48.248;-1.700;2023-04-19T00:24:16;11.50;68.60
46926;DHT22;32667;48.248;-1.700;2023-04-19T00:26:42;11.50;68.60
46926;DHT22;32667;48.248;-1.700;2023-04-19T00:29:07;11.50;68.70
46926;DHT22;32667;48.248;-1.700;2023-04-19T00:31:36;11.40;68.70
46926;DHT22;32667;48.248;-1.700;2023-04-19T00:34:04;11.40;68.60
46926;DHT22;32667;48.248;-1.700;2023-04-19T00:36:32;11.40;68.60
46926;DHT22;32667;48.248;-1.700;2023-04-19T00:39:00;11.40;68.60
46926;DHT22;32667;48.248;-1.700;2023-04-19T00:41:25;11.40;68.60
46926;DHT22;32667;48.248;-1.700;2023-04-19T00:43:51;11.40;68.60
46926;DHT22;32667;48.248;-1.700;2023-04-19T00:46:17;11.40;68.70
46926;DHT22;32667;48.248;-1.700;2023-04-19T00:48:43;11.40;69.30
46926;DHT22;32667;48.248;-1.700;2023-04-19T00:51:09;11.40;68.70
46926;DHT22;32667;48.248;-1.700;2023-04-19T00:53:35;11.40;68.70
46926;DHT22;32667;48.248;-1.700;2023-04-19T00:56:02;11.40;68.70
46926;DHT22;32667;48.248;-1.700;2023-04-19T00:58:30;11.40;68.60
46926;DHT22;32667;48.248;-1.700;2023-04-19T01:00:59;11.40;68.50
46926;DHT22;32667;48.248;-1.700;2023-04-19T01:03:25;11.40;68.50
46926;DHT22;32667;48.248;-1.700;2023-04-19T01:05:54;11.40;68.50
46926;DHT22;32667;48.248;-1.700;2023-04-19T01:08:21;11.40;68.40
46926;DHT22;32667;48.248;-1.700;2023-04-19T01:10:47;11.40;68.40
46926;DHT22;32667;48.248;-1.700;2023-04-19T01:13:12;11.40;68.50
46926;DHT22;32667;48.248;-1.700;2023-04-19T01:15:38;11.40;68.50
46926;DHT22;32667;48.248;-1.700;2023-04-19T01:18:06;11.30;68.50
46926;DHT22;32667;48.248;-1.700;2023-04-19T01:20:35;11.30;68.50
46926;DHT22;32667;48.248;-1.700;2023-04-19T01:23:01;11.30;68.60
46926;DHT22;32667;48.248;-1.700;2023-04-19T01:25:27;11.30;68.60
46926;DHT22;32667;48.248;-1.700;2023-04-19T01:27:55;11.20;68.60
46926;DHT22;32667;48.248;-1.700;2023-04-19T01:30:20;11.20;68.60
46926;DHT22;32667;48.248;-1.700;2023-04-19T01:32:46;11.20;68.60
46926;DHT22;32667;48.248;-1.700;2023-04-19T01:35:12;11.20;68.70
46926;DHT22;32667;48.248;-1.700;2023-04-19T01:37:38;11.10;68.70
46926;DHT22;32667;48.248;-1.700;2023-04-19T01:40:04;11.10;68.70
46926;DHT22;32667;48.248;-1.700;2023-04-19T01:42:34;11.10;68.70
46926;DHT22;32667;48.248;-1.700;2023-04-19T01:45:00;11.10;68.70
46926;DHT22;32667;48.248;-1.700;2023-04-19T01:47:29;11.10;68.80
46926;DHT22;32667;48.248;-1.700;2023-04-19T01:49:55;11.00;68.70
46926;DHT22;32667;48.248;-1.700;2023-04-19T01:52:20;11.00;68.70
46926;DHT22;32667;48.248;-1.700;2023-04-19T01:54:46;11.00;68.80
46926;DHT22;32667;48.248;-1.700;2023-04-19T01:57:12;11.00;68.80
46926;DHT22;32667;48.248;-1.700;2023-04-19T01:59:43;11.00;68.80
46926;DHT22;32667;48.248;-1.700;2023-04-19T02:02:11;10.90;68.80
46926;DHT22;32667;48.248;-1.700;2023-04-19T02:04:39;10.90;68.80
46926;DHT22;32667;48.248;-1.700;2023-04-19T02:07:08;10.90;68.80
46926;DHT22;32667;48.248;-1.700;2023-04-19T02:09:35;10.90;68.90
46926;DHT22;32667;48.248;-1.700;2023-04-19T02:12:01;10.90;68.90
46926;DHT22;32667;48.248;-1.700;2023-04-19T02:14:27;10.80;68.90
46926;DHT22;32667;48.248;-1.700;2023-04-19T02:16:53;10.80;68.90
46926;DHT22;32667;48.248;-1.700;2023-04-19T02:19:19;10.80;68.90
46926;DHT22;32667;48.248;-1.700;2023-04-19T02:21:44;10.80;68.90
46926;DHT22;32667;48.248;-1.700;2023-04-19T02:24:10;10.80;68.90
46926;DHT22;32667;48.248;-1.700;2023-04-19T02:26:37;10.80;68.90
46926;DHT22;32667;48.248;-1.700;2023-04-19T02:29:03;10.70;68.90
46926;DHT22;32667;48.248;-1.700;2023-04-19T02:31:29;10.70;68.90
46926;DHT22;32667;48.248;-1.700;2023-04-19T02:33:55;10.70;68.90
46926;DHT22;32667;48.248;-1.700;2023-04-19T02:36:23;10.70;69.50
46926;DHT22;32667;48.248;-1.700;2023-04-19T02:38:49;10.70;68.90
46926;DHT22;32667;48.248;-1.700;2023-04-19T02:41:17;10.70;68.90
46926;DHT22;32667;48.248;-1.700;2023-04-19T02:43:42;10.60;68.80
46926;DHT22;32667;48.248;-1.700;2023-04-19T02:46:09;10.60;68.90
46926;DHT22;32667;48.248;-1.700;2023-04-19T02:48:34;10.60;68.90
46926;DHT22;32667;48.248;-1.700;2023-04-19T02:51:00;10.60;69.00
46926;DHT22;32667;48.248;-1.700;2023-04-19T02:53:26;10.50;68.90
46926;DHT22;32667;48.248;-1.700;2023-04-19T02:55:52;10.50;69.00
46926;DHT22;32667;48.248;-1.700;2023-04-19T02:58:18;10.50;69.00
46926;DHT22;32667;48.248;-1.700;2023-04-19T03:00:46;10.50;69.00
46926;DHT22;32667;48.248;-1.700;2023-04-19T03:03:12;10.50;69.20
46926;DHT22;32667;48.248;-1.700;2023-04-19T03:05:38;10.50;69.00
46926;DHT22;32667;48.248;-1.700;2023-04-19T03:08:04;10.40;69.60
46926;DHT22;32667;48.248;-1.700;2023-04-19T03:10:29;10.40;69.00
46926;DHT22;32667;48.248;-1.700;2023-04-19T03:12:55;10.40;69.00
46926;DHT22;32667;48.248;-1.700;2023-04-19T03:15:21;10.40;69.10
46926;DHT22;32667;48.248;-1.700;2023-04-19T03:17:47;10.40;69.00
46926;DHT22;32667;48.248;-1.700;2023-04-19T03:20:13;10.40;69.00
46926;DHT22;32667;48.248;-1.700;2023-04-19T03:22:41;10.40;69.00
46926;DHT22;32667;48.248;-1.700;2023-04-19T03:25:07;10.40;69.00
46926;DHT22;32667;48.248;-1.700;2023-04-19T03:27:34;10.40;69.00
46926;DHT22;32667;48.248;-1.700;2023-04-19T03:30:02;10.40;69.00
46926;DHT22;32667;48.248;-1.700;2023-04-19T03:32:29;10.40;69.00
46926;DHT22;32667;48.248;-1.700;2023-04-19T03:34:55;10.40;69.00
46926;DHT22;32667;48.248;-1.700;2023-04-19T03:37:21;10.40;69.00
46926;DHT22;32667;48.248;-1.700;2023-04-19T03:39:47;10.30;69.00
46926;DHT22;32667;48.248;-1.700;2023-04-19T03:42:12;10.40;69.10
46926;DHT22;32667;48.248;-1.700;2023-04-19T03:44:38;10.30;69.00
46926;DHT22;32667;48.248;-1.700;2023-04-19T03:47:04;10.30;68.90
46926;DHT22;32667;48.248;-1.700;2023-04-19T03:49:32;10.30;69.10
46926;DHT22;32667;48.248;-1.700;2023-04-19T03:51:57;10.30;69.10
46926;DHT22;32667;48.248;-1.700;2023-04-19T03:54:23;10.30;69.00
46926;DHT22;32667;48.248;-1.700;2023-04-19T03:56:49;10.30;69.00
46926;DHT22;32667;48.248;-1.700;2023-04-19T03:59:15;10.30;69.00
46926;DHT22;32667;48.248;-1.700;2023-04-19T04:01:48;10.30;69.00
46926;DHT22;32667;48.248;-1.700;2023-04-19T04:04:13;10.30;69.00
46926;DHT22;32667;48.248;-1.700;2023-04-19T04:06:39;10.30;69.00
46926;DHT22;32667;48.248;-1.700;2023-04-19T04:09:05;10.30;68.90
46926;DHT22;32667;48.248;-1.700;2023-04-19T04:11:40;10.30;68.80
46926;DHT22;32667;48.248;-1.700;2023-04-19T04:14:06;10.30;68.90
46926;DHT22;32667;48.248;-1.700;2023-04-19T04:16:32;10.30;68.80
46926;DHT22;32667;48.248;-1.700;2023-04-19T04:18:57;10.30;68.80
46926;DHT22;32667;48.248;-1.700;2023-04-19T04:21:23;10.30;68.80
46926;DHT22;32667;48.248;-1.700;2023-04-19T04:23:49;10.30;68.80
46926;DHT22;32667;48.248;-1.700;2023-04-19T04:26:18;10.30;68.90
46926;DHT22;32667;48.248;-1.700;2023-04-19T04:28:44;10.30;68.90
46926;DHT22;32667;48.248;-1.700;2023-04-19T04:31:10;10.20;68.80
46926;DHT22;32667;48.248;-1.700;2023-04-19T04:33:37;10.20;68.90
46926;DHT22;32667;48.248;-1.700;2023-04-19T04:36:03;10.20;69.00
46926;DHT22;32667;48.248;-1.700;2023-04-19T04:38:29;10.20;69.00
46926;DHT22;32667;48.248;-1.700;2023-04-19T04:40:55;10.20;69.00
46926;DHT22;32667;48.248;-1.700;2023-04-19T04:43:25;10.20;69.00
46926;DHT22;32667;48.248;-1.700;2023-04-19T04:45:53;10.10;68.90
46926;DHT22;32667;48.248;-1.700;2023-04-19T04:48:24;10.10;68.90
46926;DHT22;32667;48.248;-1.700;2023-04-19T04:50:50;10.10;69.00
46926;DHT22;32667;48.248;-1.700;2023-04-19T04:53:16;10.00;69.10
46926;DHT22;32667;48.248;-1.700;2023-04-19T04:55:44;10.00;69.10
46926;DHT22;32667;48.248;-1.700;2023-04-19T04:58:10;10.00;69.20
46926;DHT22;32667;48.248;-1.700;2023-04-19T05:00:38;10.00;69.20
46926;DHT22;32667;48.248;-1.700;2023-04-19T05:03:07;10.00;69.20
46926;DHT22;32667;48.248;-1.700;2023-04-19T05:05:35;9.90;69.20
46926;DHT22;32667;48.248;-1.700;2023-04-19T05:08:03;9.90;69.20
46926;DHT22;32667;48.248;-1.700;2023-04-19T05:10:29;9.90;69.20
46926;DHT22;32667;48.248;-1.700;2023-04-19T05:12:54;9.90;69.30
46926;DHT22;32667;48.248;-1.700;2023-04-19T05:15:20;9.90;69.30
46926;DHT22;32667;48.248;-1.700;2023-04-19T05:17:46;9.80;69.20
46926;DHT22;32667;48.248;-1.700;2023-04-19T05:20:14;9.80;69.20
46926;DHT22;32667;48.248;-1.700;2023-04-19T05:22:40;9.90;69.20
46926;DHT22;32667;48.248;-1.700;2023-04-19T05:25:06;9.90;69.20
46926;DHT22;32667;48.248;-1.700;2023-04-19T05:27:32;9.90;69.20
46926;DHT22;32667;48.248;-1.700;2023-04-19T05:29:58;9.90;69.10
46926;DHT22;32667;48.248;-1.700;2023-04-19T05:32:24;9.90;69.00
46926;DHT22;32667;48.248;-1.700;2023-04-19T05:34:49;9.90;69.00
46926;DHT22;32667;48.248;-1.700;2023-04-19T05:37:15;9.90;69.00
46926;DHT22;32667;48.248;-1.700;2023-04-19T05:39:41;9.90;68.90
46926;DHT22;32667;48.248;-1.700;2023-04-19T05:42:06;10.00;68.90
46926;DHT22;32667;48.248;-1.700;2023-04-19T05:44:32;10.00;68.90
46926;DHT22;32667;48.248;-1.700;2023-04-19T05:47:00;10.00;68.90
46926;DHT22;32667;48.248;-1.700;2023-04-19T05:49:26;10.00;68.90
46926;DHT22;32667;48.248;-1.700;2023-04-19T05:51:51;10.00;68.90
46926;DHT22;32667;48.248;-1.700;2023-04-19T05:54:19;10.00;68.90
46926;DHT22;32667;48.248;-1.700;2023-04-19T05:56:45;10.00;68.90
46926;DHT22;32667;48.248;-1.700;2023-04-19T05:59:11;10.00;68.90
46926;DHT22;32667;48.248;-1.700;2023-04-19T06:01:38;10.00;68.90
46926;DHT22;32667;48.248;-1.700;2023-04-19T06:04:04;10.00;68.80
46926;DHT22;32667;48.248;-1.700;2023-04-19T06:06:29;10.00;68.80
46926;DHT22;32667;48.248;-1.700;2023-04-19T06:08:55;10.10;68.80
46926;DHT22;32667;48.248;-1.700;2023-04-19T06:11:23;10.10;68.70
46926;DHT22;32667;48.248;-1.700;2023-04-19T06:13:52;10.10;68.70
46926;DHT22;32667;48.248;-1.700;2023-04-19T06:16:18;10.20;68.70
46926;DHT22;32667;48.248;-1.700;2023-04-19T06:18:43;10.20;69.20
46926;DHT22;32667;48.248;-1.700;2023-04-19T06:21:12;10.20;68.50
46926;DHT22;32667;48.248;-1.700;2023-04-19T06:23:37;10.30;68.50
46926;DHT22;32667;48.248;-1.700;2023-04-19T06:26:05;10.30;68.40
46926;DHT22;32667;48.248;-1.700;2023-04-19T06:28:33;10.40;68.40
46926;DHT22;32667;48.248;-1.700;2023-04-19T06:30:59;10.40;68.30
46926;DHT22;32667;48.248;-1.700;2023-04-19T06:33:27;10.50;68.30
46926;DHT22;32667;48.248;-1.700;2023-04-19T06:35:53;10.50;68.20
46926;DHT22;32667;48.248;-1.700;2023-04-19T06:38:21;10.60;68.20
46926;DHT22;32667;48.248;-1.700;2023-04-19T06:40:46;10.60;68.10
46926;DHT22;32667;48.248;-1.700;2023-04-19T06:43:12;10.70;68.00
46926;DHT22;32667;48.248;-1.700;2023-04-19T06:45:38;10.70;68.60
46926;DHT22;32667;48.248;-1.700;2023-04-19T06:48:04;10.80;67.90
46926;DHT22;32667;48.248;-1.700;2023-04-19T06:50:30;10.90;67.90
46926;DHT22;32667;48.248;-1.700;2023-04-19T06:52:57;10.90;67.80
46926;DHT22;32667;48.248;-1.700;2023-04-19T06:55:22;11.00;67.70
46926;DHT22;32667;48.248;-1.700;2023-04-19T06:57:51;11.10;67.60
46926;DHT22;32667;48.248;-1.700;2023-04-19T07:00:17;11.20;67.50
46926;DHT22;32667;48.248;-1.700;2023-04-19T07:02:45;11.40;67.40
46926;DHT22;32667;48.248;-1.700;2023-04-19T07:05:10;11.50;67.30
46926;DHT22;32667;48.248;-1.700;2023-04-19T07:07:37;11.60;67.10
46926;DHT22;32667;48.248;-1.700;2023-04-19T07:10:07;11.70;67.00
46926;DHT22;32667;48.248;-1.700;2023-04-19T07:12:33;11.80;66.80
46926;DHT22;32667;48.248;-1.700;2023-04-19T07:15:01;12.00;66.70
46926;DHT22;32667;48.248;-1.700;2023-04-19T07:17:26;12.10;66.60
46926;DHT22;32667;48.248;-1.700;2023-04-19T07:19:52;12.20;66.50
46926;DHT22;32667;48.248;-1.700;2023-04-19T07:22:18;12.40;66.40
46926;DHT22;32667;48.248;-1.700;2023-04-19T07:24:43;12.50;66.30
46926;DHT22;32667;48.248;-1.700;2023-04-19T07:27:09;12.60;66.10
46926;DHT22;32667;48.248;-1.700;2023-04-19T07:29:36;12.70;66.00
46926;DHT22;32667;48.248;-1.700;2023-04-19T07:32:02;12.80;66.00
46926;DHT22;32667;48.248;-1.700;2023-04-19T07:34:28;12.90;65.90
46926;DHT22;32667;48.248;-1.700;2023-04-19T07:36:54;13.10;65.80
46926;DHT22;32667;48.248;-1.700;2023-04-19T07:39:19;13.30;65.70
46926;DHT22;32667;48.248;-1.700;2023-04-19T07:41:45;13.40;65.60
46926;DHT22;32667;48.248;-1.700;2023-04-19T07:44:11;13.50;65.40
46926;DHT22;32667;48.248;-1.700;2023-04-19T07:46:42;13.60;65.40
46926;DHT22;32667;48.248;-1.700;2023-04-19T07:49:11;13.70;65.30
46926;DHT22;32667;48.248;-1.700;2023-04-19T07:51:37;13.90;65.20
46926;DHT22;32667;48.248;-1.700;2023-04-19T07:54:03;14.00;65.10
46926;DHT22;32667;48.248;-1.700;2023-04-19T07:56:29;14.10;65.10
46926;DHT22;32667;48.248;-1.700;2023-04-19T07:58:55;14.20;65.00
46926;DHT22;32667;48.248;-1.700;2023-04-19T08:01:21;14.30;64.90
46926;DHT22;32667;48.248;-1.700;2023-04-19T08:03:46;14.50;64.90
46926;DHT22;32667;48.248;-1.700;2023-04-19T08:06:14;14.60;64.80
46926;DHT22;32667;48.248;-1.700;2023-04-19T08:08:40;14.70;64.70
46926;DHT22;32667;48.248;-1.700;2023-04-19T08:11:06;14.80;64.60
46926;DHT22;32667;48.248;-1.700;2023-04-19T08:13:33;14.90;64.70
46926;DHT22;32667;48.248;-1.700;2023-04-19T08:16:00;14.90;64.60
46926;DHT22;32667;48.248;-1.700;2023-04-19T08:18:26;15.00;64.70
46926;DHT22;32667;48.248;-1.700;2023-04-19T08:20:51;15.10;64.70
46926;DHT22;32667;48.248;-1.700;2023-04-19T08:23:18;15.10;64.70
46926;DHT22;32667;48.248;-1.700;2023-04-19T08:25:44;15.30;64.70
46926;DHT22;32667;48.248;-1.700;2023-04-19T08:28:10;15.30;64.60
46926;DHT22;32667;48.248;-1.700;2023-04-19T08:30:36;15.30;64.70
46926;DHT22;32667;48.248;-1.700;2023-04-19T08:33:02;15.40;64.70
46926;DHT22;32667;48.248;-1.700;2023-04-19T08:35:28;15.50;64.70
46926;DHT22;32667;48.248;-1.700;2023-04-19T08:37:54;15.60;64.70
46926;DHT22;32667;48.248;-1.700;2023-04-19T08:40:20;15.60;64.70
46926;DHT22;32667;48.248;-1.700;2023-04-19T08:42:46;15.60;64.70
46926;DHT22;32667;48.248;-1.700;2023-04-19T08:45:12;15.70;64.70
46926;DHT22;32667;48.248;-1.700;2023-04-19T08:47:40;15.80;64.80
46926;DHT22;32667;48.248;-1.700;2023-04-19T08:50:07;15.80;64.80
46926;DHT22;32667;48.248;-1.700;2023-04-19T08:52:34;15.90;64.80
46926;DHT22;32667;48.248;-1.700;2023-04-19T08:55:06;15.90;64.60
46926;DHT22;32667;48.248;-1.700;2023-04-19T08:57:33;16.00;64.60
46926;DHT22;32667;48.248;-1.700;2023-04-19T09:00:00;16.10;64.50
46926;DHT22;32667;48.248;-1.700;2023-04-19T09:02:26;16.20;64.50
46926;DHT22;32667;48.248;-1.700;2023-04-19T09:04:54;16.20;64.40
46926;DHT22;32667;48.248;-1.700;2023-04-19T09:07:26;16.30;64.50
46926;DHT22;32667;48.248;-1.700;2023-04-19T09:10:15;16.30;64.40
46926;DHT22;32667;48.248;-1.700;2023-04-19T09:12:42;16.30;64.50
46926;DHT22;32667;48.248;-1.700;2023-04-19T09:15:09;16.30;64.60
46926;DHT22;32667;48.248;-1.700;2023-04-19T09:17:39;16.40;64.60
46926;DHT22;32667;48.248;-1.700;2023-04-19T09:20:05;16.50;64.60
46926;DHT22;32667;48.248;-1.700;2023-04-19T09:22:32;16.50;64.50
46926;DHT22;32667;48.248;-1.700;2023-04-19T09:24:59;16.60;64.50
46926;DHT22;32667;48.248;-1.700;2023-04-19T09:27:30;16.60;64.50
46926;DHT22;32667;48.248;-1.700;2023-04-19T09:30:00;16.60;64.50
46926;DHT22;32667;48.248;-1.700;2023-04-19T09:32:27;16.70;64.50
46926;DHT22;32667;48.248;-1.700;2023-04-19T09:34:55;16.70;64.50
46926;DHT22;32667;48.248;-1.700;2023-04-19T09:37:24;16.80;64.50
46926;DHT22;32667;48.248;-1.700;2023-04-19T09:39:52;16.80;64.40
46926;DHT22;32667;48.248;-1.700;2023-04-19T09:42:20;16.80;64.40
46926;DHT22;32667;48.248;-1.700;2023-04-19T09:44:59;16.90;64.40
46926;DHT22;32667;48.248;-1.700;2023-04-19T09:47:26;16.90;65.10
46926;DHT22;32667;48.248;-1.700;2023-04-19T09:50:08;16.90;64.50
46926;DHT22;32667;48.248;-1.700;2023-04-19T09:52:34;16.90;64.50
46926;DHT22;32667;48.248;-1.700;2023-04-19T09:55:03;16.90;64.50
46926;DHT22;32667;48.248;-1.700;2023-04-19T09:57:30;17.00;64.50
46926;DHT22;32667;48.248;-1.700;2023-04-19T09:59:59;17.10;64.50
46926;DHT22;32667;48.248;-1.700;2023-04-19T10:02:30;17.10;64.40
46926;DHT22;32667;48.248;-1.700;2023-04-19T10:04:59;17.20;64.30
46926;DHT22;32667;48.248;-1.700;2023-04-19T10:07:26;17.20;64.20
46926;DHT22;32667;48.248;-1.700;2023-04-19T10:09:57;17.30;64.90
46926;DHT22;32667;48.248;-1.700;2023-04-19T10:12:31;17.40;64.30
46926;DHT22;32667;48.248;-1.700;2023-04-19T10:14:57;17.40;64.20
46926;DHT22;32667;48.248;-1.700;2023-04-19T10:17:24;17.40;64.20
46926;DHT22;32667;48.248;-1.700;2023-04-19T10:20:02;17.50;64.20
46926;DHT22;32667;48.248;-1.700;2023-04-19T10:22:33;17.60;64.20
46926;DHT22;32667;48.248;-1.700;2023-04-19T10:27:37;17.60;64.20
46926;DHT22;32667;48.248;-1.700;2023-04-19T10:30:04;17.70;64.10
46926;DHT22;32667;48.248;-1.700;2023-04-19T10:32:39;17.80;64.00
46926;DHT22;32667;48.248;-1.700;2023-04-19T10:43:18;18.10;63.70
46926;DHT22;32667;48.248;-1.700;2023-04-19T10:45:44;18.10;63.60
46926;DHT22;32667;48.248;-1.700;2023-04-19T10:51:12;18.20;63.60
46926;DHT22;32667;48.248;-1.700;2023-04-19T10:56:11;18.30;63.70
46926;DHT22;32667;48.248;-1.700;2023-04-19T11:01:37;18.30;63.80
46926;DHT22;32667;48.248;-1.700;2023-04-19T11:06:33;18.30;63.90
46926;DHT22;32667;48.248;-1.700;2023-04-19T11:09:00;18.30;63.90
46926;DHT22;32667;48.248;-1.700;2023-04-19T11:11:27;18.40;63.90
46926;DHT22;32667;48.248;-1.700;2023-04-19T11:13:57;18.50;63.80
46926;DHT22;32667;48.248;-1.700;2023-04-19T11:16:26;18.60;63.70
46926;DHT22;32667;48.248;-1.700;2023-04-19T11:18:52;18.60;63.50
46926;DHT22;32667;48.248;-1.700;2023-04-19T11:21:19;18.70;63.40
46926;DHT22;32667;48.248;-1.700;2023-04-19T11:23:44;18.80;63.40
46926;DHT22;32667;48.248;-1.700;2023-04-19T11:26:13;18.90;63.40
46926;DHT22;32667;48.248;-1.700;2023-04-19T11:28:39;19.00;63.30
46926;DHT22;32667;48.248;-1.700;2023-04-19T11:31:05;19.00;63.20
46926;DHT22;32667;48.248;-1.700;2023-04-19T11:33:36;19.10;63.20
46926;DHT22;32667;48.248;-1.700;2023-04-19T11:36:02;19.20;63.20
46926;DHT22;32667;48.248;-1.700;2023-04-19T11:38:30;19.20;63.20
46926;DHT22;32667;48.248;-1.700;2023-04-19T11:41:00;19.20;63.10
46926;DHT22;32667;48.248;-1.700;2023-04-19T11:43:36;19.30;63.20
46926;DHT22;32667;48.248;-1.700;2023-04-19T11:46:06;19.30;63.20
46926;DHT22;32667;48.248;-1.700;2023-04-19T11:48:33;19.30;63.10
46926;DHT22;32667;48.248;-1.700;2023-04-19T11:50:59;19.30;63.20
46926;DHT22;32667;48.248;-1.700;2023-04-19T11:53:29;19.30;63.30
46926;DHT22;32667;48.248;-1.700;2023-04-19T11:56:03;19.30;63.30
46926;DHT22;32667;48.248;-1.700;2023-04-19T11:58:41;19.40;63.30
46926;DHT22;32667;48.248;-1.700;2023-04-19T12:01:19;19.50;63.30
46926;DHT22;32667;48.248;-1.700;2023-04-19T12:08:43;19.70;63.00
46926;DHT22;32667;48.248;-1.700;2023-04-19T12:11:09;19.80;62.90
46926;DHT22;32667;48.248;-1.700;2023-04-19T12:13:38;19.90;62.80
46926;DHT22;32667;48.248;-1.700;2023-04-19T12:16:06;20.10;62.60
46926;DHT22;32667;48.248;-1.700;2023-04-19T12:19:16;20.10;62.50
46926;DHT22;32667;48.248;-1.700;2023-04-19T12:21:43;20.10;62.50
46926;DHT22;32667;48.248;-1.700;2023-04-19T12:24:10;20.10;62.70
46926;DHT22;32667;48.248;-1.700;2023-04-19T12:26:54;20.10;62.80
46926;DHT22;32667;48.248;-1.700;2023-04-19T12:29:21;20.20;62.90
46926;DHT22;32667;48.248;-1.700;2023-04-19T12:31:47;20.20;62.70
46926;DHT22;32667;48.248;-1.700;2023-04-19T12:34:12;20.30;62.60
46926;DHT22;32667;48.248;-1.700;2023-04-19T12:36:38;20.30;62.60
46926;DHT22;32667;48.248;-1.700;2023-04-19T12:39:04;20.30;63.30
46926;DHT22;32667;48.248;-1.700;2023-04-19T12:41:32;20.40;62.70
46926;DHT22;32667;48.248;-1.700;2023-04-19T12:43:58;20.50;62.70
46926;DHT22;32667;48.248;-1.700;2023-04-19T12:46:24;20.60;62.40
46926;DHT22;32667;48.248;-1.700;2023-04-19T12:48:55;20.80;62.30
46926;DHT22;32667;48.248;-1.700;2023-04-19T12:51:21;20.90;62.20
46926;DHT22;32667;48.248;-1.700;2023-04-19T12:53:47;21.00;62.10
46926;DHT22;32667;48.248;-1.700;2023-04-19T12:56:14;21.20;61.90
46926;DHT22;32667;48.248;-1.700;2023-04-19T12:58:40;21.50;61.70
46926;DHT22;32667;48.248;-1.700;2023-04-19T13:01:06;21.60;61.40
46926;DHT22;32667;48.248;-1.700;2023-04-19T13:03:34;21.80;61.30
46926;DHT22;32667;48.248;-1.700;2023-04-19T13:06:04;21.80;61.20
46926;DHT22;32667;48.248;-1.700;2023-04-19T13:08:30;21.90;61.30
46926;DHT22;32667;48.248;-1.700;2023-04-19T13:10:58;21.90;61.30
46926;DHT22;32667;48.248;-1.700;2023-04-19T13:13:24;21.90;61.50
46926;DHT22;32667;48.248;-1.700;2023-04-19T13:15:51;22.00;61.50
46926;DHT22;32667;48.248;-1.700;2023-04-19T13:18:18;22.20;61.40
46926;DHT22;32667;48.248;-1.700;2023-04-19T13:20:44;22.30;61.10
46926;DHT22;32667;48.248;-1.700;2023-04-19T13:23:09;22.20;61.30
46926;DHT22;32667;48.248;-1.700;2023-04-19T13:25:37;22.10;61.60
46926;DHT22;32667;48.248;-1.700;2023-04-19T13:28:03;22.10;61.80
46926;DHT22;32667;48.248;-1.700;2023-04-19T13:30:29;22.40;61.60
46926;DHT22;32667;48.248;-1.700;2023-04-19T13:32:58;22.70;61.20
46926;DHT22;32667;48.248;-1.700;2023-04-19T13:35:26;22.80;60.90
46926;DHT22;32667;48.248;-1.700;2023-04-19T13:37:51;22.70;61.00
46926;DHT22;32667;48.248;-1.700;2023-04-19T13:40:17;22.60;61.40
46926;DHT22;32667;48.248;-1.700;2023-04-19T13:42:43;22.40;61.60
46926;DHT22;32667;48.248;-1.700;2023-04-19T13:45:09;22.30;62.60
46926;DHT22;32667;48.248;-1.700;2023-04-19T13:47:35;22.10;62.20
46926;DHT22;32667;48.248;-1.700;2023-04-19T13:50:01;22.00;62.50
46926;DHT22;32667;48.248;-1.700;2023-04-19T13:52:26;21.80;62.80
46926;DHT22;32667;48.248;-1.700;2023-04-19T13:54:54;21.90;62.90
46926;DHT22;32667;48.248;-1.700;2023-04-19T13:57:23;22.00;62.60
46926;DHT22;32667;48.248;-1.700;2023-04-19T13:59:48;22.30;62.20
46926;DHT22;32667;48.248;-1.700;2023-04-19T14:02:14;22.40;62.00
46926;DHT22;32667;48.248;-1.700;2023-04-19T14:04:40;22.40;62.00
46926;DHT22;32667;48.248;-1.700;2023-04-19T14:07:06;22.40;62.00
46926;DHT22;32667;48.248;-1.700;2023-04-19T14:09:31;22.30;62.20
46926;DHT22;32667;48.248;-1.700;2023-04-19T14:11:57;22.10;62.40
46926;DHT22;32667;48.248;-1.700;2023-04-19T14:14:25;22.10;62.60
46926;DHT22;32667;48.248;-1.700;2023-04-19T14:16:51;21.90;62.80
46926;DHT22;32667;48.248;-1.700;2023-04-19T14:19:17;21.80;62.90
46926;DHT22;32667;48.248;-1.700;2023-04-19T14:21:42;22.00;63.00
46926;DHT22;32667;48.248;-1.700;2023-04-19T14:24:08;22.10;62.60
46926;DHT22;32667;48.248;-1.700;2023-04-19T14:26:34;22.30;62.30
46926;DHT22;32667;48.248;-1.700;2023-04-19T14:29:00;22.30;62.20
46926;DHT22;32667;48.248;-1.700;2023-04-19T14:31:26;22.40;62.10
46926;DHT22;32667;48.248;-1.700;2023-04-19T14:33:54;22.50;62.00
46926;DHT22;32667;48.248;-1.700;2023-04-19T14:36:19;22.70;61.90
46926;DHT22;32667;48.248;-1.700;2023-04-19T14:38:45;22.80;61.80
46926;DHT22;32667;48.248;-1.700;2023-04-19T14:41:11;22.80;61.60
46926;DHT22;32667;48.248;-1.700;2023-04-19T14:43:39;22.70;61.70
46926;DHT22;32667;48.248;-1.700;2023-04-19T14:46:04;22.70;61.90
46926;DHT22;32667;48.248;-1.700;2023-04-19T14:48:31;22.50;62.20
46926;DHT22;32667;48.248;-1.700;2023-04-19T14:50:57;22.40;62.40
46926;DHT22;32667;48.248;-1.700;2023-04-19T14:53:23;22.30;62.60
46926;DHT22;32667;48.248;-1.700;2023-04-19T14:55:51;22.20;62.90
46926;DHT22;32667;48.248;-1.700;2023-04-19T14:58:19;22.00;63.00
46926;DHT22;32667;48.248;-1.700;2023-04-19T15:00:45;21.90;63.30
46926;DHT22;32667;48.248;-1.700;2023-04-19T15:03:10;21.80;63.40
46926;DHT22;32667;48.248;-1.700;2023-04-19T15:05:36;21.70;63.50
46926;DHT22;32667;48.248;-1.700;2023-04-19T15:08:04;21.60;63.70
46926;DHT22;32667;48.248;-1.700;2023-04-19T15:10:33;21.50;63.70
46926;DHT22;32667;48.248;-1.700;2023-04-19T15:12:59;21.50;63.70
46926;DHT22;32667;48.248;-1.700;2023-04-19T15:15:25;21.40;63.70
46926;DHT22;32667;48.248;-1.700;2023-04-19T15:17:51;21.50;63.70
46926;DHT22;32667;48.248;-1.700;2023-04-19T15:20:16;21.50;63.60
46926;DHT22;32667;48.248;-1.700;2023-04-19T15:22:42;21.50;63.60
46926;DHT22;32667;48.248;-1.700;2023-04-19T15:25:10;21.50;63.60
46926;DHT22;32667;48.248;-1.700;2023-04-19T15:27:36;21.60;63.40
46926;DHT22;32667;48.248;-1.700;2023-04-19T15:30:02;21.90;63.00
46926;DHT22;32667;48.248;-1.700;2023-04-19T15:32:28;22.10;62.50
46926;DHT22;32667;48.248;-1.700;2023-04-19T15:34:58;22.40;62.10
46926;DHT22;32667;48.248;-1.700;2023-04-19T15:37:24;22.50;61.80
46926;DHT22;32667;48.248;-1.700;2023-04-19T15:39:51;22.50;62.00
46926;DHT22;32667;48.248;-1.700;2023-04-19T15:42:17;22.40;62.20
46926;DHT22;32667;48.248;-1.700;2023-04-19T15:44:43;22.30;62.20